sensor_id;sensor_type;location;lat;lon;timestamp;P1;durP1;ratioP1;P2;durP2;ratioP2
15340;SDS011;7770;52.158;5.372;2023-04-25T00:02:09;23.87;;;7.33;;
15340;SDS011;7770;52.158;5.372;2023-04-25T00:04:55;19.67;;;7.93;;
15340;SDS011;7770;52.158;5.372;2023-04-25T00:07:43;21.77;;;7.67;;
15340;SDS011;7770;52.158;5.372;2023-04-25T00:10:29;26.23;;;8.10;;
15340;SDS011;7770;52.158;5.372;2023-04-25T00:13:15;18.77;;;7.23;;
15340;SDS011;7770;52.158;5.372;2023-04-25T00:16:02;20.73;;;7.47;;
15340;SDS011;7770;52.158;5.372;2023-04-25T00:18:49;24.13;;;7.67;;
15340;SDS011;7770;52.158;5.372;2023-04-25T00:21:39;18.53;;;8.27;;
15340;SDS011;7770;52.158;5.372;2023-04-25T00:24:28;23.07;;;8.10;;
15340;SDS011;7770;52.158;5.372;2023-04-25T00:27:14;15.13;;;7.60;;
15340;SDS011;7770;52.158;5.372;2023-04-25T00:30:00;26.00;;;8.30;;
15340;SDS011;7770;52.158;5.372;2023-04-25T00:32:46;21.87;;;7.07;;
15340;SDS011;7770;52.158;5.372;2023-04-25T00:35:32;16.80;;;6.57;;
15340;SDS011;7770;52.158;5.372;2023-04-25T00:38:18;20.50;;;7.03;;
15340;SDS011;7770;52.158;5.372;2023-04-25T00:41:05;13.70;;;6.70;;
15340;SDS011;7770;52.158;5.372;2023-04-25T00:43:53;18.43;;;7.17;;
15340;SDS011;7770;52.158;5.372;2023-04-25T00:46:40;16.07;;;7.13;;
15340;SDS011;7770;52.158;5.372;2023-04-25T00:49:26;18.70;;;6.83;;
15340;SDS011;7770;52.158;5.372;2023-04-25T00:52:12;17.10;;;7.07;;
15340;SDS011;7770;52.158;5.372;2023-04-25T00:54:58;21.40;;;7.20;;
15340;SDS011;7770;52.158;5.372;2023-04-25T00:57:45;15.20;;;6.90;;
15340;SDS011;7770;52.158;5.372;2023-04-25T01:00:32;22.57;;;7.43;;
15340;SDS011;7770;52.158;5.372;2023-04-25T01:03:18;18.80;;;7.00;;
15340;SDS011;7770;52.158;5.372;2023-04-25T01:06:05;21.63;;;7.00;;
15340;SDS011;7770;52.158;5.372;2023-04-25T01:08:55;16.70;;;7.40;;
15340;SDS011;7770;52.158;5.372;2023-04-25T01:11:42;21.17;;;8.07;;
15340;SDS011;7770;52.158;5.372;2023-04-25T01:14:28;19.97;;;7.30;;
15340;SDS011;7770;52.158;5.372;2023-04-25T01:17:15;15.73;;;7.43;;
15340;SDS011;7770;52.158;5.372;2023-04-25T01:20:06;17.80;;;6.83;;
15340;SDS011;7770;52.158;5.372;2023-04-25T01:22:54;14.43;;;6.87;;
15340;SDS011;7770;52.158;5.372;2023-04-25T01:25:41;17.70;;;7.67;;
15340;SDS011;7770;52.158;5.372;2023-04-25T01:28:27;16.43;;;7.37;;
15340;SDS011;7770;52.158;5.372;2023-04-25T01:31:14;16.87;;;7.90;;
15340;SDS011;7770;52.158;5.372;2023-04-25T01:34:01;16.70;;;6.97;;
15340;SDS011;7770;52.158;5.372;2023-04-25T01:36:49;17.23;;;7.43;;
15340;SDS011;7770;52.158;5.372;2023-04-25T01:39:36;21.70;;;8.03;;
15340;SDS011;7770;52.158;5.372;2023-04-25T01:42:22;20.37;;;7.40;;
15340;SDS011;7770;52.158;5.372;2023-04-25T01:45:08;21.87;;;7.97;;
15340;SDS011;7770;52.158;5.372;2023-04-25T01:47:56;16.90;;;7.50;;
15340;SDS011;7770;52.158;5.372;2023-04-25T01:50:44;16.73;;;7.33;;
15340;SDS011;7770;52.158;5.372;2023-04-25T01:53:30;18.23;;;7.40;;
15340;SDS011;7770;52.158;5.372;2023-04-25T01:56:17;19.07;;;7.03;;
15340;SDS011;7770;52.158;5.372;2023-04-25T01:59:04;15.27;;;7.47;;
15340;SDS011;7770;52.158;5.372;2023-04-25T02:01:51;22.43;;;7.77;;
15340;SDS011;7770;52.158;5.372;2023-04-25T02:04:37;14.93;;;6.97;;
15340;SDS011;7770;52.158;5.372;2023-04-25T02:07:23;14.07;;;6.53;;
15340;SDS011;7770;52.158;5.372;2023-04-25T02:10:09;17.30;;;7.10;;
15340;SDS011;7770;52.158;5.372;2023-04-25T02:12:55;20.67;;;7.30;;
15340;SDS011;7770;52.158;5.372;2023-04-25T02:15:43;13.60;;;6.37;;
15340;SDS011;7770;52.158;5.372;2023-04-25T02:18:29;16.30;;;7.00;;
15340;SDS011;7770;52.158;5.372;2023-04-25T02:21:16;13.50;;;6.97;;
15340;SDS011;7770;52.158;5.372;2023-04-25T02:24:02;12.17;;;6.70;;
15340;SDS011;7770;52.158;5.372;2023-04-25T02:26:49;22.60;;;7.23;;
15340;SDS011;7770;52.158;5.372;2023-04-25T02:29:35;19.30;;;7.67;;
15340;SDS011;7770;52.158;5.372;2023-04-25T02:32:21;18.97;;;6.90;;
15340;SDS011;7770;52.158;5.372;2023-04-25T02:35:07;18.87;;;6.53;;
15340;SDS011;7770;52.158;5.372;2023-04-25T02:37:53;17.43;;;7.40;;
15340;SDS011;7770;52.158;5.372;2023-04-25T02:40:39;21.27;;;6.23;;
15340;SDS011;7770;52.158;5.372;2023-04-25T02:43:25;21.77;;;6.60;;
15340;SDS011;7770;52.158;5.372;2023-04-25T02:46:11;16.07;;;6.17;;
15340;SDS011;7770;52.158;5.372;2023-04-25T02:48:57;17.40;;;7.33;;
15340;SDS011;7770;52.158;5.372;2023-04-25T02:51:43;11.03;;;6.40;;
15340;SDS011;7770;52.158;5.372;2023-04-25T02:54:30;15.43;;;6.43;;
15340;SDS011;7770;52.158;5.372;2023-04-25T02:57:16;17.37;;;7.20;;
15340;SDS011;7770;52.158;5.372;2023-04-25T03:00:02;18.33;;;6.47;;
15340;SDS011;7770;52.158;5.372;2023-04-25T03:02:50;14.87;;;6.40;;
15340;SDS011;7770;52.158;5.372;2023-04-25T03:05:36;14.63;;;6.43;;
15340;SDS011;7770;52.158;5.372;2023-04-25T03:08:22;20.33;;;6.43;;
15340;SDS011;7770;52.158;5.372;2023-04-25T03:11:08;15.67;;;7.30;;
15340;SDS011;7770;52.158;5.372;2023-04-25T03:13:54;16.23;;;6.77;;
15340;SDS011;7770;52.158;5.372;2023-04-25T03:16:40;20.67;;;8.50;;
15340;SDS011;7770;52.158;5.372;2023-04-25T03:19:26;15.80;;;6.97;;
15340;SDS011;7770;52.158;5.372;2023-04-25T03:22:12;17.83;;;6.60;;
15340;SDS011;7770;52.158;5.372;2023-04-25T03:24:58;19.57;;;7.53;;
15340;SDS011;7770;52.158;5.372;2023-04-25T03:27:44;16.00;;;6.90;;
15340;SDS011;7770;52.158;5.372;2023-04-25T03:30:30;18.47;;;7.23;;
15340;SDS011;7770;52.158;5.372;2023-04-25T03:33:16;18.57;;;7.80;;
15340;SDS011;7770;52.158;5.372;2023-04-25T03:36:02;18.20;;;7.73;;
15340;SDS011;7770;52.158;5.372;2023-04-25T03:38:49;23.43;;;7.10;;
15340;SDS011;7770;52.158;5.372;2023-04-25T03:41:35;18.43;;;6.93;;
15340;SDS011;7770;52.158;5.372;2023-04-25T03:44:21;18.17;;;6.90;;
15340;SDS011;7770;52.158;5.372;2023-04-25T03:47:07;20.17;;;6.97;;
15340;SDS011;7770;52.158;5.372;2023-04-25T03:49:53;15.53;;;6.57;;
15340;SDS011;7770;52.158;5.372;2023-04-25T03:52:39;18.37;;;6.70;;
15340;SDS011;7770;52.158;5.372;2023-04-25T03:55:25;14.90;;;6.77;;
15340;SDS011;7770;52.158;5.372;2023-04-25T03:58:11;19.67;;;6.80;;
15340;SDS011;7770;52.158;5.372;2023-04-25T04:00:57;12.00;;;6.23;;
15340;SDS011;7770;52.158;5.372;2023-04-25T04:03:43;13.17;;;6.40;;
15340;SDS011;7770;52.158;5.372;2023-04-25T04:06:29;19.27;;;6.10;;
15340;SDS011;7770;52.158;5.372;2023-04-25T04:09:15;15.43;;;5.93;;
15340;SDS011;7770;52.158;5.372;2023-04-25T04:12:01;17.97;;;6.00;;
15340;SDS011;7770;52.158;5.372;2023-04-25T04:14:47;15.30;;;6.03;;
15340;SDS011;7770;52.158;5.372;2023-04-25T04:17:33;16.10;;;5.47;;
15340;SDS011;7770;52.158;5.372;2023-04-25T04:20:20;15.77;;;5.57;;
15340;SDS011;7770;52.158;5.372;2023-04-25T04:23:06;13.77;;;5.53;;
15340;SDS011;7770;52.158;5.372;2023-04-25T04:25:52;12.87;;;5.40;;
15340;SDS011;7770;52.158;5.372;2023-04-25T04:28:39;11.90;;;4.33;;
15340;SDS011;7770;52.158;5.372;2023-04-25T04:31:25;10.70;;;4.30;;
15340;SDS011;7770;52.158;5.372;2023-04-25T04:34:11;9.87;;;3.97;;
15340;SDS011;7770;52.158;5.372;2023-04-25T04:36:58;11.87;;;4.03;;
15340;SDS011;7770;52.158;5.372;2023-04-25T04:39:44;8.77;;;3.83;;
15340;SDS011;7770;52.158;5.372;2023-04-25T04:42:30;12.97;;;3.73;;
15340;SDS011;7770;52.158;5.372;2023-04-25T04:45:16;6.50;;;3.60;;
15340;SDS011;7770;52.158;5.372;2023-04-25T04:48:05;10.40;;;3.70;;
15340;SDS011;7770;52.158;5.372;2023-04-25T04:50:51;7.13;;;3.60;;
15340;SDS011;7770;52.158;5.372;2023-04-25T04:53:37;8.80;;;3.33;;
15340;SDS011;7770;52.158;5.372;2023-04-25T04:56:24;9.67;;;3.70;;
15340;SDS011;7770;52.158;5.372;2023-04-25T04:59:10;8.10;;;3.57;;
15340;SDS011;7770;52.158;5.372;2023-04-25T05:01:56;8.77;;;3.57;;
15340;SDS011;7770;52.158;5.372;2023-04-25T05:04:42;7.33;;;3.67;;
15340;SDS011;7770;52.158;5.372;2023-04-25T05:07:28;14.93;;;4.23;;
15340;SDS011;7770;52.158;5.372;2023-04-25T05:10:15;7.43;;;3.90;;
15340;SDS011;7770;52.158;5.372;2023-04-25T05:13:01;11.23;;;3.97;;
15340;SDS011;7770;52.158;5.372;2023-04-25T05:15:48;9.67;;;3.57;;
15340;SDS011;7770;52.158;5.372;2023-04-25T05:18:34;9.07;;;4.23;;
15340;SDS011;7770;52.158;5.372;2023-04-25T05:21:20;13.53;;;4.40;;
15340;SDS011;7770;52.158;5.372;2023-04-25T05:24:06;10.17;;;4.23;;
15340;SDS011;7770;52.158;5.372;2023-04-25T05:26:52;9.93;;;4.03;;
15340;SDS011;7770;52.158;5.372;2023-04-25T05:29:38;9.27;;;3.70;;
15340;SDS011;7770;52.158;5.372;2023-04-25T05:32:24;9.20;;;3.47;;
15340;SDS011;7770;52.158;5.372;2023-04-25T05:35:10;7.30;;;3.57;;
15340;SDS011;7770;52.158;5.372;2023-04-25T05:37:56;10.30;;;3.60;;
15340;SDS011;7770;52.158;5.372;2023-04-25T05:40:42;7.90;;;3.57;;
15340;SDS011;7770;52.158;5.372;2023-04-25T05:43:29;11.07;;;3.70;;
15340;SDS011;7770;52.158;5.372;2023-04-25T05:46:15;11.00;;;3.73;;
15340;SDS011;7770;52.158;5.372;2023-04-25T05:49:05;6.27;;;3.47;;
15340;SDS011;7770;52.158;5.372;2023-04-25T05:51:51;10.90;;;3.30;;
15340;SDS011;7770;52.158;5.372;2023-04-25T05:54:37;7.77;;;4.20;;
15340;SDS011;7770;52.158;5.372;2023-04-25T05:57:23;8.77;;;4.10;;
15340;SDS011;7770;52.158;5.372;2023-04-25T06:00:11;11.27;;;3.77;;
15340;SDS011;7770;52.158;5.372;2023-04-25T06:03:00;5.33;;;3.63;;
15340;SDS011;7770;52.158;5.372;2023-04-25T06:05:46;9.37;;;3.30;;
15340;SDS011;7770;52.158;5.372;2023-04-25T06:08:32;6.30;;;3.50;;
15340;SDS011;7770;52.158;5.372;2023-04-25T06:11:18;8.37;;;3.40;;
15340;SDS011;7770;52.158;5.372;2023-04-25T06:14:05;9.77;;;3.13;;
15340;SDS011;7770;52.158;5.372;2023-04-25T06:16:52;10.30;;;3.50;;
15340;SDS011;7770;52.158;5.372;2023-04-25T06:19:38;10.63;;;3.50;;
15340;SDS011;7770;52.158;5.372;2023-04-25T06:22:24;7.40;;;3.20;;
15340;SDS011;7770;52.158;5.372;2023-04-25T06:25:10;7.07;;;3.10;;
15340;SDS011;7770;52.158;5.372;2023-04-25T06:27:56;11.60;;;2.77;;
15340;SDS011;7770;52.158;5.372;2023-04-25T06:30:42;8.73;;;3.27;;
15340;SDS011;7770;52.158;5.372;2023-04-25T06:33:28;8.13;;;2.97;;
15340;SDS011;7770;52.158;5.372;2023-04-25T06:36:14;7.63;;;3.27;;
15340;SDS011;7770;52.158;5.372;2023-04-25T06:39:00;6.97;;;2.80;;
15340;SDS011;7770;52.158;5.372;2023-04-25T06:41:46;7.60;;;3.10;;
15340;SDS011;7770;52.158;5.372;2023-04-25T06:44:32;10.87;;;3.13;;
15340;SDS011;7770;52.158;5.372;2023-04-25T06:47:18;7.03;;;3.07;;
15340;SDS011;7770;52.158;5.372;2023-04-25T06:50:04;7.50;;;3.13;;
15340;SDS011;7770;52.158;5.372;2023-04-25T06:52:51;8.17;;;3.10;;
15340;SDS011;7770;52.158;5.372;2023-04-25T06:55:37;5.77;;;2.90;;
15340;SDS011;7770;52.158;5.372;2023-04-25T06:58:23;9.03;;;2.87;;
15340;SDS011;7770;52.158;5.372;2023-04-25T07:01:09;9.73;;;3.20;;
15340;SDS011;7770;52.158;5.372;2023-04-25T07:03:55;11.13;;;3.13;;
15340;SDS011;7770;52.158;5.372;2023-04-25T07:06:41;8.70;;;3.73;;
15340;SDS011;7770;52.158;5.372;2023-04-25T07:09:28;7.07;;;2.90;;
15340;SDS011;7770;52.158;5.372;2023-04-25T07:12:14;9.03;;;3.30;;
15340;SDS011;7770;52.158;5.372;2023-04-25T07:15:00;6.90;;;3.07;;
15340;SDS011;7770;52.158;5.372;2023-04-25T07:17:51;7.80;;;3.07;;
15340;SDS011;7770;52.158;5.372;2023-04-25T07:20:37;5.17;;;2.90;;
15340;SDS011;7770;52.158;5.372;2023-04-25T07:23:23;9.00;;;2.90;;
15340;SDS011;7770;52.158;5.372;2023-04-25T07:26:09;6.03;;;2.70;;
15340;SDS011;7770;52.158;5.372;2023-04-25T07:28:55;6.60;;;2.40;;
15340;SDS011;7770;52.158;5.372;2023-04-25T07:31:41;7.87;;;2.57;;
15340;SDS011;7770;52.158;5.372;2023-04-25T07:34:27;6.83;;;2.93;;
15340;SDS011;7770;52.158;5.372;2023-04-25T07:37:13;6.20;;;2.73;;
15340;SDS011;7770;52.158;5.372;2023-04-25T07:39:59;8.43;;;2.67;;
15340;SDS011;7770;52.158;5.372;2023-04-25T07:42:45;7.53;;;2.47;;
15340;SDS011;7770;52.158;5.372;2023-04-25T07:45:31;7.20;;;2.60;;
15340;SDS011;7770;52.158;5.372;2023-04-25T07:48:17;7.23;;;2.77;;
15340;SDS011;7770;52.158;5.372;2023-04-25T07:51:04;7.23;;;2.80;;
15340;SDS011;7770;52.158;5.372;2023-04-25T07:53:50;5.30;;;2.50;;
15340;SDS011;7770;52.158;5.372;2023-04-25T07:56:36;7.93;;;2.50;;
15340;SDS011;7770;52.158;5.372;2023-04-25T07:59:22;6.77;;;2.47;;
15340;SDS011;7770;52.158;5.372;2023-04-25T08:02:08;7.67;;;2.67;;
15340;SDS011;7770;52.158;5.372;2023-04-25T08:04:54;6.17;;;2.50;;
15340;SDS011;7770;52.158;5.372;2023-04-25T08:07:40;6.30;;;2.57;;
15340;SDS011;7770;52.158;5.372;2023-04-25T08:10:27;13.20;;;3.13;;
15340;SDS011;7770;52.158;5.372;2023-04-25T08:13:12;11.00;;;2.53;;
15340;SDS011;7770;52.158;5.372;2023-04-25T08:15:59;6.63;;;3.00;;
15340;SDS011;7770;52.158;5.372;2023-04-25T08:18:45;6.20;;;2.30;;
15340;SDS011;7770;52.158;5.372;2023-04-25T08:21:31;5.33;;;2.10;;
15340;SDS011;7770;52.158;5.372;2023-04-25T08:24:17;9.53;;;2.50;;
15340;SDS011;7770;52.158;5.372;2023-04-25T08:27:03;4.77;;;2.03;;
15340;SDS011;7770;52.158;5.372;2023-04-25T08:29:49;4.73;;;2.13;;
15340;SDS011;7770;52.158;5.372;2023-04-25T08:32:36;4.20;;;2.30;;
15340;SDS011;7770;52.158;5.372;2023-04-25T08:35:24;5.53;;;2.30;;
15340;SDS011;7770;52.158;5.372;2023-04-25T08:38:10;4.13;;;2.30;;
15340;SDS011;7770;52.158;5.372;2023-04-25T08:40:56;5.33;;;2.33;;
15340;SDS011;7770;52.158;5.372;2023-04-25T08:43:42;6.17;;;1.90;;
15340;SDS011;7770;52.158;5.372;2023-04-25T08:46:29;4.87;;;2.33;;
15340;SDS011;7770;52.158;5.372;2023-04-25T08:49:19;9.27;;;2.40;;
15340;SDS011;7770;52.158;5.372;2023-04-25T08:52:06;5.87;;;2.37;;
15340;SDS011;7770;52.158;5.372;2023-04-25T08:54:56;9.47;;;2.77;;
15340;SDS011;7770;52.158;5.372;2023-04-25T08:57:42;8.13;;;2.30;;
15340;SDS011;7770;52.158;5.372;2023-04-25T09:00:30;4.57;;;2.30;;
15340;SDS011;7770;52.158;5.372;2023-04-25T09:03:16;4.53;;;2.60;;
15340;SDS011;7770;52.158;5.372;2023-04-25T09:06:03;6.23;;;2.43;;
15340;SDS011;7770;52.158;5.372;2023-04-25T09:08:49;8.47;;;2.63;;
15340;SDS011;7770;52.158;5.372;2023-04-25T09:11:36;6.40;;;2.50;;
15340;SDS011;7770;52.158;5.372;2023-04-25T09:14:22;4.87;;;2.10;;
15340;SDS011;7770;52.158;5.372;2023-04-25T09:17:11;4.63;;;2.27;;
15340;SDS011;7770;52.158;5.372;2023-04-25T09:20:09;4.20;;;2.47;;
15340;SDS011;7770;52.158;5.372;2023-04-25T09:23:02;4.83;;;2.50;;
15340;SDS011;7770;52.158;5.372;2023-04-25T09:25:50;4.57;;;2.20;;
15340;SDS011;7770;52.158;5.372;2023-04-25T09:28:38;8.63;;;2.43;;
15340;SDS011;7770;52.158;5.372;2023-04-25T09:31:24;6.13;;;2.57;;
15340;SDS011;7770;52.158;5.372;2023-04-25T09:34:10;5.77;;;2.43;;
15340;SDS011;7770;52.158;5.372;2023-04-25T09:37:01;3.93;;;2.07;;
15340;SDS011;7770;52.158;5.372;2023-04-25T09:39:48;4.80;;;1.90;;
15340;SDS011;7770;52.158;5.372;2023-04-25T09:42:45;5.67;;;1.90;;
15340;SDS011;7770;52.158;5.372;2023-04-25T09:45:31;5.77;;;2.30;;
15340;SDS011;7770;52.158;5.372;2023-04-25T09:48:27;6.97;;;2.20;;
15340;SDS011;7770;52.158;5.372;2023-04-25T09:51:14;4.00;;;1.80;;
15340;SDS011;7770;52.158;5.372;2023-04-25T09:54:00;6.83;;;2.30;;
15340;SDS011;7770;52.158;5.372;2023-04-25T09:56:46;6.73;;;1.90;;
15340;SDS011;7770;52.158;5.372;2023-04-25T09:59:33;3.67;;;1.80;;
15340;SDS011;7770;52.158;5.372;2023-04-25T10:02:31;4.23;;;1.83;;
15340;SDS011;7770;52.158;5.372;2023-04-25T10:05:19;4.53;;;1.90;;
15340;SDS011;7770;52.158;5.372;2023-04-25T10:08:05;6.43;;;2.17;;
15340;SDS011;7770;52.158;5.372;2023-04-25T10:10:52;4.60;;;2.03;;
15340;SDS011;7770;52.158;5.372;2023-04-25T10:13:38;2.27;;;1.80;;
15340;SDS011;7770;52.158;5.372;2023-04-25T10:16:25;5.43;;;2.07;;
15340;SDS011;7770;52.158;5.372;2023-04-25T10:19:13;5.63;;;2.00;;
15340;SDS011;7770;52.158;5.372;2023-04-25T10:22:04;6.60;;;2.10;;
15340;SDS011;7770;52.158;5.372;2023-04-25T10:25:18;6.83;;;2.07;;
15340;SDS011;7770;52.158;5.372;2023-04-25T10:28:04;3.93;;;1.73;;
15340;SDS011;7770;52.158;5.372;2023-04-25T10:31:03;4.97;;;2.10;;
15340;SDS011;7770;52.158;5.372;2023-04-25T10:33:53;4.83;;;1.90;;
15340;SDS011;7770;52.158;5.372;2023-04-25T10:36:39;5.13;;;2.13;;
15340;SDS011;7770;52.158;5.372;2023-04-25T10:39:26;5.47;;;2.30;;
15340;SDS011;7770;52.158;5.372;2023-04-25T10:42:13;4.13;;;1.90;;
15340;SDS011;7770;52.158;5.372;2023-04-25T10:45:04;5.57;;;2.23;;
15340;SDS011;7770;52.158;5.372;2023-04-25T10:47:51;5.67;;;2.37;;
15340;SDS011;7770;52.158;5.372;2023-04-25T10:50:37;5.50;;;2.07;;
15340;SDS011;7770;52.158;5.372;2023-04-25T10:53:25;3.90;;;2.10;;
15340;SDS011;7770;52.158;5.372;2023-04-25T10:56:19;4.57;;;2.57;;
15340;SDS011;7770;52.158;5.372;2023-04-25T10:59:18;4.67;;;2.37;;
15340;SDS011;7770;52.158;5.372;2023-04-25T11:02:11;3.97;;;1.80;;
15340;SDS011;7770;52.158;5.372;2023-04-25T11:04:58;4.30;;;2.10;;
15340;SDS011;7770;52.158;5.372;2023-04-25T11:07:51;5.10;;;2.37;;
15340;SDS011;7770;52.158;5.372;2023-04-25T11:10:42;5.53;;;2.37;;
15340;SDS011;7770;52.158;5.372;2023-04-25T11:13:29;5.37;;;2.20;;
15340;SDS011;7770;52.158;5.372;2023-04-25T11:16:16;5.57;;;3.00;;
15340;SDS011;7770;52.158;5.372;2023-04-25T11:19:02;5.50;;;2.80;;
15340;SDS011;7770;52.158;5.372;2023-04-25T11:21:49;4.77;;;2.73;;
15340;SDS011;7770;52.158;5.372;2023-04-25T11:24:35;4.47;;;2.80;;
15340;SDS011;7770;52.158;5.372;2023-04-25T11:27:21;5.57;;;2.70;;
15340;SDS011;7770;52.158;5.372;2023-04-25T11:30:13;4.27;;;2.37;;
15340;SDS011;7770;52.158;5.372;2023-04-25T11:33:00;6.97;;;2.90;;
15340;SDS011;7770;52.158;5.372;2023-04-25T11:35:48;7.90;;;2.73;;
15340;SDS011;7770;52.158;5.372;2023-04-25T11:38:34;7.97;;;2.30;;
15340;SDS011;7770;52.158;5.372;2023-04-25T11:41:20;5.73;;;2.50;;
15340;SDS011;7770;52.158;5.372;2023-04-25T11:44:07;6.67;;;2.53;;
15340;SDS011;7770;52.158;5.372;2023-04-25T11:46:53;6.77;;;2.77;;
15340;SDS011;7770;52.158;5.372;2023-04-25T11:49:40;6.13;;;2.80;;
15340;SDS011;7770;52.158;5.372;2023-04-25T11:55:29;5.13;;;2.40;;
15340;SDS011;7770;52.158;5.372;2023-04-25T11:58:16;5.17;;;2.10;;
15340;SDS011;7770;52.158;5.372;2023-04-25T12:01:02;4.37;;;2.20;;
15340;SDS011;7770;52.158;5.372;2023-04-25T12:03:48;5.83;;;2.37;;
15340;SDS011;7770;52.158;5.372;2023-04-25T12:06:36;4.03;;;2.20;;
15340;SDS011;7770;52.158;5.372;2023-04-25T12:09:33;3.73;;;2.00;;
15340;SDS011;7770;52.158;5.372;2023-04-25T12:12:19;6.13;;;2.23;;
15340;SDS011;7770;52.158;5.372;2023-04-25T12:15:09;6.07;;;2.07;;
15340;SDS011;7770;52.158;5.372;2023-04-25T12:18:01;3.93;;;2.40;;
15340;SDS011;7770;52.158;5.372;2023-04-25T12:20:47;4.07;;;1.97;;
15340;SDS011;7770;52.158;5.372;2023-04-25T12:23:33;4.47;;;1.90;;
15340;SDS011;7770;52.158;5.372;2023-04-25T12:26:20;4.53;;;2.20;;
15340;SDS011;7770;52.158;5.372;2023-04-25T12:29:15;4.73;;;2.13;;
15340;SDS011;7770;52.158;5.372;2023-04-25T12:32:02;6.17;;;2.00;;
15340;SDS011;7770;52.158;5.372;2023-04-25T12:34:49;2.90;;;2.10;;
15340;SDS011;7770;52.158;5.372;2023-04-25T12:37:35;4.80;;;2.30;;
15340;SDS011;7770;52.158;5.372;2023-04-25T12:40:21;4.23;;;2.00;;
15340;SDS011;7770;52.158;5.372;2023-04-25T12:43:07;3.20;;;2.07;;
15340;SDS011;7770;52.158;5.372;2023-04-25T12:45:54;5.40;;;2.33;;
15340;SDS011;7770;52.158;5.372;2023-04-25T12:48:41;3.73;;;2.07;;
15340;SDS011;7770;52.158;5.372;2023-04-25T12:51:27;3.73;;;2.00;;
15340;SDS011;7770;52.158;5.372;2023-04-25T12:54:13;6.00;;;2.40;;
15340;SDS011;7770;52.158;5.372;2023-04-25T12:56:59;3.87;;;1.93;;
15340;SDS011;7770;52.158;5.372;2023-04-25T12:59:48;4.57;;;2.30;;
15340;SDS011;7770;52.158;5.372;2023-04-25T13:02:34;4.47;;;1.80;;
15340;SDS011;7770;52.158;5.372;2023-04-25T13:05:20;4.80;;;2.10;;
15340;SDS011;7770;52.158;5.372;2023-04-25T13:08:06;4.40;;;2.03;;
15340;SDS011;7770;52.158;5.372;2023-04-25T13:10:52;5.87;;;2.20;;
15340;SDS011;7770;52.158;5.372;2023-04-25T13:13:38;5.60;;;2.23;;
15340;SDS011;7770;52.158;5.372;2023-04-25T13:16:25;5.20;;;2.00;;
15340;SDS011;7770;52.158;5.372;2023-04-25T13:19:11;4.57;;;2.20;;
15340;SDS011;7770;52.158;5.372;2023-04-25T13:21:57;6.07;;;2.40;;
15340;SDS011;7770;52.158;5.372;2023-04-25T13:24:44;6.20;;;2.03;;
15340;SDS011;7770;52.158;5.372;2023-04-25T13:27:30;4.87;;;2.00;;
15340;SDS011;7770;52.158;5.372;2023-04-25T13:30:17;4.50;;;1.97;;
15340;SDS011;7770;52.158;5.372;2023-04-25T13:33:03;5.20;;;2.17;;
15340;SDS011;7770;52.158;5.372;2023-04-25T13:35:51;4.60;;;1.80;;
15340;SDS011;7770;52.158;5.372;2023-04-25T13:38:42;6.17;;;2.13;;
15340;SDS011;7770;52.158;5.372;2023-04-25T13:41:30;6.43;;;2.00;;
15340;SDS011;7770;52.158;5.372;2023-04-25T13:44:16;6.17;;;2.40;;
15340;SDS011;7770;52.158;5.372;2023-04-25T13:47:02;3.83;;;2.00;;
15340;SDS011;7770;52.158;5.372;2023-04-25T13:49:49;5.47;;;2.10;;
15340;SDS011;7770;52.158;5.372;2023-04-25T13:52:35;3.80;;;1.70;;
15340;SDS011;7770;52.158;5.372;2023-04-25T13:55:21;3.63;;;2.40;;
15340;SDS011;7770;52.158;5.372;2023-04-25T13:58:07;5.50;;;2.30;;
15340;SDS011;7770;52.158;5.372;2023-04-25T14:00:54;5.67;;;2.30;;
15340;SDS011;7770;52.158;5.372;2023-04-25T14:03:41;6.13;;;2.50;;
15340;SDS011;7770;52.158;5.372;2023-04-25T14:06:27;6.30;;;2.73;;
15340;SDS011;7770;52.158;5.372;2023-04-25T14:09:13;5.87;;;2.50;;
15340;SDS011;7770;52.158;5.372;2023-04-25T14:12:00;3.23;;;2.20;;
15340;SDS011;7770;52.158;5.372;2023-04-25T14:14:47;4.73;;;2.30;;
15340;SDS011;7770;52.158;5.372;2023-04-25T14:17:33;5.00;;;2.20;;
15340;SDS011;7770;52.158;5.372;2023-04-25T14:20:19;5.73;;;2.07;;
15340;SDS011;7770;52.158;5.372;2023-04-25T14:23:06;6.37;;;2.00;;
15340;SDS011;7770;52.158;5.372;2023-04-25T14:25:52;7.47;;;2.40;;
15340;SDS011;7770;52.158;5.372;2023-04-25T14:28:38;11.23;;;3.10;;
15340;SDS011;7770;52.158;5.372;2023-04-25T14:31:24;8.60;;;2.67;;
15340;SDS011;7770;52.158;5.372;2023-04-25T14:34:10;5.67;;;2.30;;
15340;SDS011;7770;52.158;5.372;2023-04-25T14:36:56;7.10;;;2.00;;
15340;SDS011;7770;52.158;5.372;2023-04-25T14:39:42;3.67;;;2.00;;
15340;SDS011;7770;52.158;5.372;2023-04-25T14:42:28;4.27;;;2.20;;
15340;SDS011;7770;52.158;5.372;2023-04-25T14:45:15;7.13;;;2.40;;
15340;SDS011;7770;52.158;5.372;2023-04-25T14:48:01;4.90;;;1.97;;
15340;SDS011;7770;52.158;5.372;2023-04-25T14:50:47;7.03;;;2.37;;
15340;SDS011;7770;52.158;5.372;2023-04-25T14:53:34;5.70;;;2.40;;
15340;SDS011;7770;52.158;5.372;2023-04-25T14:56:20;3.83;;;2.00;;
15340;SDS011;7770;52.158;5.372;2023-04-25T14:59:05;4.10;;;2.10;;
15340;SDS011;7770;52.158;5.372;2023-04-25T15:01:51;5.27;;;2.57;;
15340;SDS011;7770;52.158;5.372;2023-04-25T15:04:38;3.50;;;1.97;;
15340;SDS011;7770;52.158;5.372;2023-04-25T15:07:24;3.97;;;2.13;;
15340;SDS011;7770;52.158;5.372;2023-04-25T15:10:11;5.90;;;2.30;;
15340;SDS011;7770;52.158;5.372;2023-04-25T15:13:00;5.13;;;1.90;;
15340;SDS011;7770;52.158;5.372;2023-04-25T15:15:48;3.07;;;1.90;;
15340;SDS011;7770;52.158;5.372;2023-04-25T15:18:36;6.50;;;2.13;;
15340;SDS011;7770;52.158;5.372;2023-04-25T15:21:22;5.30;;;2.10;;
15340;SDS011;7770;52.158;5.372;2023-04-25T15:24:08;5.93;;;2.20;;
15340;SDS011;7770;52.158;5.372;2023-04-25T15:26:54;4.80;;;2.20;;
15340;SDS011;7770;52.158;5.372;2023-04-25T15:29:40;4.63;;;2.37;;
15340;SDS011;7770;52.158;5.372;2023-04-25T15:32:26;7.77;;;2.77;;
15340;SDS011;7770;52.158;5.372;2023-04-25T15:35:13;3.80;;;2.23;;
15340;SDS011;7770;52.158;5.372;2023-04-25T15:38:00;6.33;;;2.47;;
15340;SDS011;7770;52.158;5.372;2023-04-25T15:40:46;7.83;;;3.13;;
15340;SDS011;7770;52.158;5.372;2023-04-25T15:43:32;5.80;;;2.40;;
15340;SDS011;7770;52.158;5.372;2023-04-25T15:46:20;5.90;;;2.60;;
15340;SDS011;7770;52.158;5.372;2023-04-25T15:49:07;6.53;;;2.60;;
15340;SDS011;7770;52.158;5.372;2023-04-25T15:51:53;6.47;;;2.73;;
15340;SDS011;7770;52.158;5.372;2023-04-25T15:54:39;5.70;;;2.47;;
15340;SDS011;7770;52.158;5.372;2023-04-25T15:57:26;6.63;;;2.90;;
15340;SDS011;7770;52.158;5.372;2023-04-25T16:00:12;4.43;;;2.40;;
15340;SDS011;7770;52.158;5.372;2023-04-25T16:02:59;5.87;;;2.57;;
15340;SDS011;7770;52.158;5.372;2023-04-25T16:05:47;6.72;;;2.70;;
15340;SDS011;7770;52.158;5.372;2023-04-25T16:08:33;6.27;;;2.90;;
15340;SDS011;7770;52.158;5.372;2023-04-25T16:11:20;8.03;;;2.73;;
15340;SDS011;7770;52.158;5.372;2023-04-25T16:14:06;6.20;;;2.73;;
15340;SDS011;7770;52.158;5.372;2023-04-25T16:16:53;5.97;;;2.50;;
15340;SDS011;7770;52.158;5.372;2023-04-25T16:19:39;9.63;;;2.83;;
15340;SDS011;7770;52.158;5.372;2023-04-25T16:22:25;5.97;;;2.47;;
15340;SDS011;7770;52.158;5.372;2023-04-25T16:25:11;5.20;;;2.33;;
15340;SDS011;7770;52.158;5.372;2023-04-25T16:27:57;5.80;;;2.30;;
15340;SDS011;7770;52.158;5.372;2023-04-25T16:30:43;7.40;;;2.77;;
15340;SDS011;7770;52.158;5.372;2023-04-25T16:33:30;8.27;;;2.60;;
15340;SDS011;7770;52.158;5.372;2023-04-25T16:36:16;7.07;;;2.87;;
15340;SDS011;7770;52.158;5.372;2023-04-25T16:39:02;6.37;;;2.20;;
15340;SDS011;7770;52.158;5.372;2023-04-25T16:41:48;5.93;;;2.70;;
15340;SDS011;7770;52.158;5.372;2023-04-25T16:44:34;7.07;;;2.80;;
15340;SDS011;7770;52.158;5.372;2023-04-25T16:47:20;6.60;;;2.53;;
15340;SDS011;7770;52.158;5.372;2023-04-25T16:50:06;6.20;;;2.63;;
15340;SDS011;7770;52.158;5.372;2023-04-25T16:52:53;4.33;;;2.53;;
15340;SDS011;7770;52.158;5.372;2023-04-25T16:55:39;3.97;;;2.50;;
15340;SDS011;7770;52.158;5.372;2023-04-25T16:58:25;5.57;;;2.70;;
15340;SDS011;7770;52.158;5.372;2023-04-25T17:01:13;4.57;;;2.47;;